• Join FlightAware (Why Join?)
  • Login
  • US Flag 
11:04AM EST


 

Airport Tracker/Info


-or-


 

Live Flight TrackerFlight Track Log ✈ N9924W ✈ 27-Apr-2014 ✈ KHEG - KHEG

Flight Track Log - Related Links

Times and Time Zones

All times are in EDT time to prevent confusion due to time zone crossing. See the N9924W flight status page for this flight to view local times or setup timezone preferences in your user account.

Time Position Orientation Groundspeed Altitude Reporting Facility
EDT Latitude Longitude Course Direction KTS MPH feet Rate Location/Type
05:03PM 30.2806 -81.8031 64° Northeast 66 76 300  Level Jacksonville Center
05:04PM 30.2867 -81.7883 64° Northeast 74 85 700 660 Climbing Jacksonville Center
05:05PM 30.2972 -81.7739 50° Northeast 77 89 1,400 480 Climbing Jacksonville Center
05:06PM 30.3097 -81.7833 327° Northwest 90 104 1,800 300 Climbing Jacksonville Center
05:07PM 30.3058 -81.8122 261° West 108 124 2,100 120 Climbing Jacksonville Center
05:08PM 30.3039 -81.8436 266° West 91 105 2,100 240 Level Jacksonville Center
05:09PM 30.2981 -81.8772 259° West 96 110 2,600 360 Climbing Jacksonville Center
05:10PM 30.2750 -81.8847 196° South 96 110 2,900 240 Climbing Jacksonville Center
05:11PM 30.2481 -81.8850 181° South 98 113 3,100  Climbing Jacksonville Center
05:12PM 30.2208 -81.8878 185° South 94 108 3,000 -120 Descending Jacksonville Center
05:13PM 30.2022 -81.9022 214° Southwest 91 105 2,900  Descending Jacksonville Center
05:15PM 30.2233 -81.9308 65° Northeast 112 129 3,000 60 Climbing Jacksonville Center
05:16PM 30.2167 -81.8997 104° East 98 113 3,100  Climbing Jacksonville Center
05:17PM 30.2000 -81.8881 149° Southeast 88 101 3,000 -60 Descending Jacksonville Center
05:18PM 30.1958 -81.9144 260° West 85 98 3,000  Level Jacksonville Center
05:19PM 30.2086 -81.9336 308° West 107 123 3,100  Climbing Jacksonville Center
05:20PM 30.2167 -81.9022 73° East 90 104 3,100 -60 Level Jacksonville Center
05:21PM 30.2019 -81.8831 132° Southeast 91 105 3,000 -60 Descending Jacksonville Center
05:22PM 30.1958 -81.9072 254° West 81 93 3,000  Level Jacksonville Center
05:23PM 30.2106 -81.9192 325° Northwest 102 117 3,100  Climbing Jacksonville Center
05:24PM 30.2103 -81.8878 91° East 103 119 3,000  Descending Jacksonville Center
05:25PM 30.1958 -81.8856 172° South 83 96 3,100  Climbing Jacksonville Center
05:26PM 30.1981 -81.9144 275° West 94 108 3,000 -60 Descending Jacksonville Center
05:27PM 30.2150 -81.9336 316° Northwest 91 105 3,000 60 Level Jacksonville Center
05:28PM 30.2256 -81.9597 295° West 97 112 3,200  Climbing Jacksonville Center
05:29PM 30.2361 -81.9861 295° West 97 112 3,000 -300 Descending Jacksonville Center
05:30PM 30.2281 -82.0103 249° West 85 98 2,600 -600 Descending Jacksonville Center
05:32PM 30.2364 -82.0197 316° Northwest 109 125 1,900 -600 Descending Jacksonville Center
05:33PM 30.2361 -81.9908 91° East 89 102 1,400 -420 Descending Jacksonville Center
05:34PM 30.2297 -81.9644 106° East 93 107 1,100 -360 Descending Jacksonville Center
05:35PM 30.2211 -81.9431 115° Southeast 72 83 700 -240 Descending Jacksonville Center
05:36PM 30.2169 -81.9142 99° East 84 97 700  Level Jacksonville Center
05:37PM 30.2125 -81.8950 105° East 68 78 800 240 Climbing Jacksonville Center
05:38PM 30.2019 -81.8783 126° Southeast 76 87 1,300 480 Climbing Jacksonville Center
05:39PM 30.1939 -81.9047 251° West 90 104 1,800 360 Climbing Jacksonville Center
05:40PM 30.1814 -81.9361 245° Southwest 98 113 2,100 180 Climbing Jacksonville Center
05:41PM 30.1628 -81.9411 193° South 84 97 2,200 -60 Climbing Jacksonville Center
05:42PM 30.1397 -81.9389 175° South 92 106 2,000 -60 Descending Jacksonville Center
05:43PM 30.1128 -81.9442 190° South 91 105 2,100  Climbing Jacksonville Center
05:44PM 30.0875 -81.9419 176° South 91 105 2,100 -120 Level Jacksonville Center
05:45PM 30.0625 -81.9422 181° South 91 105 1,900 -60 Descending Jacksonville Center
05:46PM 30.0500 -81.9256 131° Southeast 77 89 2,000 60 Climbing Jacksonville Center
05:47PM 30.0497 -81.8992 91° East 79 91 2,100 60 Climbing Jacksonville Center